This is the latest recevied weather packets stored in our database for station/object DK8HC-WX. If no packets are shown the sender has not sent any weather packets the latest 10 day(s).
| Time | Temp. | Humidity | Pressure | Rain* | Wind** | Luminosity | Snow |
|---|---|---|---|---|---|---|---|
| 1777290677 | 20° C | 48% | 1026.4 hPa | - | - | - | - |
| 1777290077 | 18.33° C | 48% | 1026.1 hPa | - | - | - | - |
| 1777289477 | 20° C | 45% | 1026.3 hPa | - | - | - | - |
| 1777288877 | 22.22° C | 46% | 1026.7 hPa | - | - | - | - |
| 1777288277 | 21.67° C | 48% | 1026.7 hPa | - | - | - | - |
| 1777287676 | 21.67° C | 51% | 1026.9 hPa | - | - | - | - |
| 1777287076 | 21.11° C | 47% | 1026.6 hPa | - | - | - | - |
| 1777286476 | 21.67° C | 54% | 1027 hPa | - | - | - | - |
| 1777285877 | 21.11° C | 55% | 1026.9 hPa | - | - | - | - |
| 1777285276 | 19.44° C | 57% | 1026.8 hPa | - | - | - | - |
| 1777284676 | 18.89° C | 61% | 1026.8 hPa | - | - | - | - |
| 1777284076 | 16.67° C | 62% | 1026.8 hPa | - | - | - | - |
| 1777283476 | 20° C | 62% | 1027.3 hPa | - | - | - | - |
| 1777282876 | 18.89° C | 62% | 1027.2 hPa | - | - | - | - |
| 1777282276 | 18.89° C | 58% | 1027.4 hPa | - | - | - | - |
| 1777281676 | 20.56° C | 58% | 1027.5 hPa | - | - | - | - |
| 1777281076 | 20.56° C | 57% | 1027.6 hPa | - | - | - | - |
| 1777280476 | 20.56° C | 63% | 1027.6 hPa | - | - | - | - |
| 1777279876 | 18.33° C | 64% | 1027.3 hPa | - | - | - | - |
| 1777279276 | 17.22° C | 65% | 1027.3 hPa | - | - | - | - |
| 1777278676 | 18.33° C | 60% | 1027.4 hPa | - | - | - | - |
| 1777278076 | 18.89° C | 61% | 1027.8 hPa | - | - | - | - |
| 1777277476 | 18.89° C | 60% | 1027.7 hPa | - | - | - | - |
| 1777276876 | 20° C | 62% | 1027.8 hPa | - | - | - | - |
| 1777276276 | 19.44° C | 59% | 1027.6 hPa | - | - | - | - |
* Rain since midnight (hover to see other rain measurements)
** Current wind speed in m/s (hover to see current wind gust speed)